Time;durP1;ratioP1;P1;durP2;ratioP2;P2;SDS_P1;SDS_P2;PMS_P1;PMS_P2;Temp;Humidity;BMP_temperature;BMP_pressure;BME280_temperature;BME280_humidity;BME280_pressure;Samples;Min_cycle;Max_cycle;Signal;HPM_P1;HPM_P2
2023/10/17 00:01:54;;;;;;;6.57;5.10;;;;;;;1.25;100.00;99853.97;6079741;23;20168;-83
2023/10/17 00:04:32;;;;;;;5.73;5.13;;;;;;;1.19;100.00;99853.75;6104432;23;20175;-83
2023/10/17 00:07:08;;;;;;;6.57;5.50;;;;;;;1.12;100.00;99848.22;6105574;23;20544;-82
2023/10/17 00:09:42;;;;;;;6.57;4.83;;;;;;;1.13;100.00;99852.53;6080204;23;20175;-84
2023/10/17 00:14:57;;;;;;;6.43;5.00;;;;;;;1.11;100.00;99848.41;6103172;23;20190;-84
2023/10/17 00:17:25;;;;;;;6.80;5.00;;;;;;;1.09;100.00;99848.56;6080789;23;20677;-83
2023/10/17 00:19:54;;;;;;;7.90;5.40;;;;;;;1.08;100.00;99846.06;6102517;23;20211;-83
2023/10/17 00:22:28;;;;;;;5.77;5.17;;;;;;;1.06;100.00;99848.88;6080880;23;20167;-84
2023/10/17 00:25:09;;;;;;;5.87;5.27;;;;;;;1.01;100.00;99840.59;6102770;23;20682;-83
2023/10/17 00:27:45;;;;;;;9.20;6.30;;;;;;;1.03;100.00;99850.97;6105986;23;20194;-82
2023/10/17 00:30:17;;;;;;;8.23;5.73;;;;;;;0.97;100.00;99849.78;6102400;23;20168;-83
2023/10/17 00:32:48;;;;;;;7.83;5.53;;;;;;;0.93;100.00;99848.44;6102892;23;20167;-82
2023/10/17 00:35:19;;;;;;;7.73;5.67;;;;;;;0.91;100.00;99844.28;6079275;23;20188;-82
2023/10/17 00:37:57;;;;;;;10.03;6.80;;;;;;;0.92;100.00;99838.03;6079631;23;20172;-83
2023/10/17 00:40:34;;;;;;;12.17;7.67;;;;;;;0.93;100.00;99843.16;6104514;23;20614;-83
2023/10/17 00:43:11;;;;;;;12.00;7.27;;;;;;;0.89;100.00;99839.97;6080933;23;20170;-82
2023/10/17 00:45:47;;;;;;;12.00;7.47;;;;;;;0.86;100.00;99840.31;6082794;23;20195;-81
2023/10/17 00:48:22;;;;;;;14.27;8.67;;;;;;;0.89;100.00;99836.50;6103054;23;20666;-82
2023/10/17 00:51:08;;;;;;;11.87;7.83;;;;;;;0.87;100.00;99847.25;6126523;23;20227;-83
2023/10/17 00:53:40;;;;;;;11.20;7.53;;;;;;;0.80;100.00;99848.81;6102084;23;20262;-83
2023/10/17 00:56:14;;;;;;;9.77;8.77;;;;;;;0.76;100.00;99850.09;6126341;23;20174;-81
2023/10/17 00:58:45;;;;;;;11.87;9.77;;;;;;;0.69;100.00;99843.78;6078211;23;20206;-82
2023/10/17 01:01:23;;;;;;;11.20;9.90;;;;;;;0.70;100.00;99845.41;6079689;23;20168;-83
2023/10/17 01:03:54;;;;;;;12.33;10.43;;;;;;;0.70;100.00;99845.41;6102910;23;20191;-82
2023/10/17 01:06:45;;;;;;;10.97;9.30;;;;;;;0.68;100.00;99843.94;6079302;23;20234;-82
2023/10/17 01:09:17;;;;;;;8.73;7.23;;;;;;;0.67;100.00;99843.09;6126441;23;20167;-82
2023/10/17 01:12:09;;;;;;;8.27;7.33;;;;;;;0.64;100.00;99834.66;6086684;23;20206;-82
2023/10/17 01:14:38;;;;;;;7.30;6.30;;;;;;;0.67;100.00;99837.00;6103257;23;20191;-84
2023/10/17 01:17:18;;;;;;;7.43;6.03;;;;;;;0.67;100.00;99842.25;6102071;23;20246;-82
2023/10/17 01:19:49;;;;;;;7.50;5.77;;;;;;;0.65;100.00;99842.44;6081202;23;20172;-83
2023/10/17 01:22:26;;;;;;;7.17;5.53;;;;;;;0.67;100.00;99837.81;6102695;23;20175;-84
2023/10/17 01:25:18;;;;;;;6.73;5.33;;;;;;;0.69;100.00;99838.50;6103406;23;20156;-82
2023/10/17 01:27:48;;;;;;;5.50;5.00;;;;;;;0.68;100.00;99831.56;6105700;23;20172;-81
2023/10/17 01:30:32;;;;;;;7.07;5.23;;;;;;;0.66;100.00;99837.97;6125816;23;20171;-83
2023/10/17 01:33:04;;;;;;;6.33;5.63;;;;;;;0.64;100.00;99834.66;6102984;23;20171;-82
2023/10/17 01:35:32;;;;;;;6.83;5.20;;;;;;;0.61;100.00;99827.88;6102011;23;20666;-82
2023/10/17 01:38:00;;;;;;;5.77;4.87;;;;;;;0.60;100.00;99825.41;6101454;23;20171;-82
2023/10/17 01:40:34;;;;;;;5.47;4.87;;;;;;;0.58;100.00;99820.28;6102559;23;20246;-82
2023/10/17 01:43:06;;;;;;;6.00;5.00;;;;;;;0.57;100.00;99831.78;6125935;23;20148;-82
2023/10/17 01:45:37;;;;;;;5.73;4.83;;;;;;;0.57;100.00;99825.69;6103144;23;20171;-84
2023/10/17 01:48:11;;;;;;;5.83;4.90;;;;;;;0.49;100.00;99825.63;6082101;23;20178;-83
2023/10/17 01:50:39;;;;;;;5.13;4.63;;;;;;;0.43;100.00;99819.13;6104553;23;20250;-83
2023/10/17 01:53:12;;;;;;;5.40;4.60;;;;;;;0.42;100.00;99825.41;6104375;23;20182;-82
2023/10/17 01:56:02;;;;;;;5.70;4.93;;;;;;;0.39;100.00;99828.31;6081795;23;20635;-82
2023/10/17 01:58:36;;;;;;;6.60;4.50;;;;;;;0.37;100.00;99828.47;6083705;23;20198;-83
2023/10/17 02:01:11;;;;;;;5.73;4.80;;;;;;;0.36;100.00;99826.00;6127738;23;20168;-85
2023/10/17 02:03:45;;;;;;;5.07;4.57;;;;;;;0.37;100.00;99817.94;6081314;23;20322;-82
2023/10/17 02:06:22;;;;;;;5.53;5.03;;;;;;;0.36;100.00;99816.28;6127798;23;20227;-81
2023/10/17 02:08:55;;;;;;;6.20;5.13;;;;;;;0.39;100.00;99826.53;6081586;23;20217;-82
2023/10/17 02:11:23;;;;;;;5.47;4.60;;;;;;;0.41;100.00;99827.22;6080690;23;20224;-83
2023/10/17 02:13:57;;;;;;;5.23;4.60;;;;;;;0.39;100.00;99829.16;6080543;23;20242;-82
2023/10/17 02:16:33;;;;;;;5.67;4.80;;;;;;;0.39;100.00;99825.69;6103828;23;20172;-82
2023/10/17 02:19:06;;;;;;;5.20;4.70;;;;;;;0.42;100.00;99820.13;6104476;23;20625;-82
2023/10/17 02:21:43;;;;;;;5.50;5.00;;;;;;;0.41;100.00;99829.03;6104054;23;20167;-82
2023/10/17 02:24:12;;;;;;;6.50;4.90;;;;;;;0.41;100.00;99824.59;6081646;23;20199;-82
2023/10/17 02:26:54;;;;;;;5.23;4.73;;;;;;;0.40;100.00;99830.00;6127422;23;20182;-83
2023/10/17 02:29:25;;;;;;;5.80;4.80;;;;;;;0.36;100.00;99826.84;6103370;23;20171;-82
2023/10/17 02:32:15;;;;;;;6.47;4.73;;;;;;;0.36;100.00;99832.09;6080589;23;20190;-82
2023/10/17 02:34:46;;;;;;;5.93;4.77;;;;;;;0.34;100.00;99822.69;6105614;23;20201;-82
2023/10/17 02:37:17;;;;;;;5.17;4.60;;;;;;;0.32;100.00;99828.13;6127455;23;20251;-82
2023/10/17 02:39:51;;;;;;;6.30;4.50;;;;;;;0.28;100.00;99820.66;6081683;23;20196;-83
2023/10/17 02:42:18;;;;;;;5.47;4.73;;;;;;;0.25;100.00;99816.50;6103406;23;20156;-84
2023/10/17 02:44:46;;;;;;;4.73;4.30;;;;;;;0.21;100.00;99811.69;6079377;23;20183;-82
2023/10/17 02:47:15;;;;;;;4.97;4.40;;;;;;;0.22;100.00;99823.88;6079731;23;20182;-82
2023/10/17 02:49:51;;;;;;;5.23;4.27;;;;;;;0.20;100.00;99823.19;6104124;23;20258;-82
2023/10/17 02:52:25;;;;;;;5.77;4.67;;;;;;;0.19;100.00;99818.88;6104265;23;20171;-84
2023/10/17 02:54:59;;;;;;;7.13;4.47;;;;;;;0.17;100.00;99815.59;6103651;23;20198;-82
2023/10/17 02:57:32;;;;;;;8.03;4.77;;;;;;;0.17;100.00;99819.06;6081087;23;20618;-83
2023/10/17 03:00:19;;;;;;;6.33;5.17;;;;;;;0.16;100.00;99820.03;6105013;23;20152;-84
2023/10/17 03:02:52;;;;;;;5.83;4.50;;;;;;;0.17;100.00;99818.22;6126701;23;20653;-83
2023/10/17 03:05:21;;;;;;;4.73;4.23;;;;;;;0.12;100.00;99821.31;6102582;23;20171;-82
2023/10/17 03:07:52;;;;;;;5.07;4.60;;;;;;;0.09;100.00;99818.97;6079858;23;20202;-82
2023/10/17 03:10:36;;;;;;;6.23;4.50;;;;;;;0.10;100.00;99828.50;6079572;23;20211;-82
2023/10/17 03:15:56;;;;;;;5.27;4.70;;;;;;;0.11;100.00;99824.06;6105328;23;20270;-83
2023/10/17 03:18:25;;;;;;;6.13;4.50;;;;;;;0.07;100.00;99825.34;6080389;23;20250;-82
2023/10/17 03:21:00;;;;;;;4.40;4.00;;;;;;;0.02;100.00;99820.53;6103202;23;20175;-82
2023/10/17 03:23:37;;;;;;;6.20;4.47;;;;;;;0.00;100.00;99817.22;6105284;23;20163;-82
2023/10/17 03:26:05;;;;;;;5.97;4.50;;;;;;;-0.02;100.00;99820.00;6103426;23;20235;-84
2023/10/17 03:28:36;;;;;;;4.40;3.90;;;;;;;-0.06;100.00;99823.91;6103175;23;20172;-84
2023/10/17 03:31:11;;;;;;;5.53;3.80;;;;;;;-0.08;100.00;99832.91;6103507;23;20178;-82
2023/10/17 03:33:42;;;;;;;5.17;4.13;;;;;;;-0.12;100.00;99839.47;6127132;23;20164;-82
2023/10/17 03:36:40;;;;;;;4.83;4.27;;;;;;;-0.16;100.00;99841.56;6103359;23;20180;-84
2023/10/17 03:39:51;;;;;;;5.13;4.33;;;;;;;-0.19;100.00;99830.50;6107095;23;20176;-82
2023/10/17 03:41:56;;;;;;;5.70;4.17;;;;;;;-0.23;100.00;99835.22;6113613;23;20168;-82
2023/10/17 03:44:31;;;;;;;6.47;4.57;;;;;;;-0.27;100.00;99841.75;6081130;23;20171;-82
2023/10/17 03:47:03;;;;;;;5.30;4.17;;;;;;;-0.30;100.00;99841.22;6126698;23;20179;-82
2023/10/17 03:49:36;;;;;;;5.27;4.70;;;;;;;-0.35;100.00;99838.19;6126898;23;20171;-82
2023/10/17 03:52:06;;;;;;;4.70;4.20;;;;;;;-0.38;100.00;99834.03;6102892;23;20176;-82
2023/10/17 03:54:39;;;;;;;5.87;4.20;;;;;;;-0.40;100.00;99833.34;6102520;23;20254;-83
2023/10/17 03:57:15;;;;;;;5.07;4.20;;;;;;;-0.43;100.00;99836.28;6103516;23;20596;-83
2023/10/17 03:59:52;;;;;;;4.80;4.30;;;;;;;-0.48;100.00;99825.34;6104550;23;20168;-82
2023/10/17 04:02:21;;;;;;;5.17;4.10;;;;;;;-0.54;100.00;99813.59;6103796;23;20202;-83
2023/10/17 04:04:57;;;;;;;5.07;3.90;;;;;;;-0.56;100.00;99809.47;6103025;23;20210;-83
2023/10/17 04:07:31;;;;;;;5.20;4.03;;;;;;;-0.61;100.00;99812.53;6103652;23;20182;-82
2023/10/17 04:10:20;;;;;;;4.63;4.17;;;;;;;-0.65;100.00;99812.94;6103447;23;20173;-82
2023/10/17 04:12:49;;;;;;;5.10;4.23;;;;;;;-0.67;100.00;99809.63;6105290;23;20171;-82
2023/10/17 04:15:20;;;;;;;4.80;4.07;;;;;;;-0.68;100.00;99807.97;6100852;23;20192;-82
2023/10/17 04:17:51;;;;;;;5.27;4.67;;;;;;;-0.69;100.00;99809.75;6102457;23;20152;-81
2023/10/17 04:20:23;;;;;;;6.03;4.73;;;;;;;-0.70;100.00;99802.03;6079527;23;20177;-82
2023/10/17 04:22:56;;;;;;;5.50;4.93;;;;;;;-0.76;100.00;99799.97;6102305;23;20172;-82
2023/10/17 04:25:42;;;;;;;6.63;5.27;;;;;;;-0.79;100.00;99808.16;6102195;23;20174;-85
2023/10/17 04:28:16;;;;;;;7.78;6.30;;;;;;;-0.75;100.00;99827.94;6104372;23;20493;-82
2023/10/17 04:30:49;;;;;;;10.57;8.57;;;;;;;-0.81;100.00;99823.25;6102618;23;20172;-81
2023/10/17 04:33:20;;;;;;;16.23;12.70;;;;;;;-0.86;100.00;99822.84;6125625;23;20182;-84
2023/10/17 04:35:55;;;;;;;13.70;11.47;;;;;;;-0.92;100.00;99814.53;6078033;23;20187;-83
2023/10/17 04:38:27;;;;;;;9.70;7.50;;;;;;;-0.94;100.00;99813.88;6102414;23;20175;-81
2023/10/17 04:43:55;;;;;;;7.77;5.00;;;;;;;-0.97;100.00;99808.03;6112638;23;20195;-82
2023/10/17 04:46:29;;;;;;;4.80;4.17;;;;;;;-1.03;100.00;99804.19;6102290;23;20211;-81
2023/10/17 04:49:17;;;;;;;5.43;4.20;;;;;;;-1.04;100.00;99806.97;6078144;23;20172;-81
2023/10/17 04:51:52;;;;;;;5.00;4.43;;;;;;;-1.06;100.00;99806.25;6105360;23;20167;-82
2023/10/17 04:54:29;;;;;;;4.50;4.10;;;;;;;-1.07;100.00;99805.44;6078578;23;20178;-81
2023/10/17 04:56:59;;;;;;;5.87;4.40;;;;;;;-1.09;100.00;99804.75;6102881;23;20171;-81
2023/10/17 05:07:34;;;;;;;10.77;9.67;;;;;;;-1.15;100.00;99797.41;6101536;23;20172;-81
2023/10/17 06:17:23;;;;;;;12.23;10.67;;;;;;;0.55;100.00;99857.50;6104411;23;20168;-87
2023/10/17 06:20:01;;;;;;;12.53;9.40;;;;;;;0.67;100.00;99858.91;6078539;23;20195;-82
2023/10/17 06:30:48;;;;;;;6.93;4.70;;;;;;;1.15;100.00;99855.88;6125390;23;20164;-82
2023/10/17 06:33:21;;;;;;;6.20;5.00;;;;;;;1.28;100.00;99852.81;6080479;23;20174;-81
2023/10/17 06:35:54;;;;;;;7.00;4.80;;;;;;;1.41;100.00;99858.50;6102481;23;20184;-82
2023/10/17 06:38:45;;;;;;;5.00;4.50;;;;;;;1.51;100.00;99846.03;6079628;23;20258;-81
2023/10/17 06:41:16;;;;;;;7.17;3.97;;;;;;;1.67;100.00;99845.28;6107338;23;20215;-81
2023/10/17 06:43:49;;;;;;;6.90;4.63;;;;;;;1.81;100.00;99844.72;6103207;23;20295;-82
2023/10/17 06:46:28;;;;;;;8.20;4.70;;;;;;;1.98;100.00;99845.59;6103880;23;20222;-83
2023/10/17 06:48:58;;;;;;;5.63;4.37;;;;;;;2.15;100.00;99847.28;6104542;23;20230;-82
2023/10/17 06:52:19;;;;;;;5.57;4.67;;;;;;;2.33;100.00;99852.50;6102661;23;20255;-82
2023/10/17 06:54:24;;;;;;;6.10;4.87;;;;;;;2.53;100.00;99857.31;6100184;23;20168;-82
2023/10/17 06:56:55;;;;;;;6.00;4.87;;;;;;;2.70;100.00;99844.13;6102802;23;20658;-81
2023/10/17 06:59:33;;;;;;;8.50;5.43;;;;;;;2.92;100.00;99852.25;6080296;23;20180;-80
2023/10/17 07:02:18;;;;;;;10.20;5.67;;;;;;;3.16;100.00;99858.53;6104187;23;20635;-81
2023/10/17 07:04:50;;;;;;;7.83;5.37;;;;;;;3.38;100.00;99855.19;6080652;23;20198;-82
2023/10/17 07:07:22;;;;;;;7.47;5.03;;;;;;;3.59;100.00;99852.84;6103485;23;20665;-81
2023/10/17 07:10:16;;;;;;;6.63;5.93;;;;;;;3.80;100.00;99842.50;6079958;23;20619;-81
2023/10/17 07:12:47;;;;;;;10.07;7.40;;;;;;;4.03;100.00;99831.97;6106755;23;20612;-81
2023/10/17 07:15:19;;;;;;;8.70;7.80;;;;;;;4.09;100.00;99841.88;6080425;23;20187;-81
2023/10/17 07:23:26;;;;;;;10.87;8.17;;;;;;;4.32;100.00;99842.75;6127340;23;20168;-81
2023/10/17 07:25:57;;;;;;;9.67;7.53;;;;;;;4.39;100.00;99835.75;6103480;23;20171;-81
2023/10/17 07:28:28;;;;;;;8.40;7.40;;;;;;;4.46;100.00;99843.84;6102399;23;20167;-82
2023/10/17 07:30:58;;;;;;;9.03;7.87;;;;;;;4.54;100.00;99840.28;6126304;23;20155;-81
2023/10/17 07:33:32;;;;;;;9.13;8.17;;;;;;;4.74;100.00;99844.16;6080057;23;20247;-81
2023/10/17 07:36:01;;;;;;;9.37;8.47;;;;;;;4.90;100.00;99838.69;6102328;23;20209;-81
2023/10/17 07:38:33;;;;;;;9.63;8.40;;;;;;;5.04;100.00;99827.31;6126457;23;20148;-81
2023/10/17 07:41:13;;;;;;;9.77;8.73;;;;;;;5.24;100.00;99822.31;6077770;23;20211;-82
2023/10/17 07:43:44;;;;;;;9.40;8.40;;;;;;;5.37;100.00;99822.50;6104168;23;20175;-81
2023/10/17 07:46:19;;;;;;;9.77;8.50;;;;;;;5.53;100.00;99813.56;6077844;23;20239;-81
2023/10/17 07:48:50;;;;;;;10.43;8.37;;;;;;;5.62;100.00;99810.63;6103170;23;20172;-82
2023/10/17 07:51:19;;;;;;;10.07;8.40;;;;;;;5.74;100.00;99814.47;6101783;23;20618;-81
2023/10/17 07:53:53;;;;;;;10.67;8.23;;;;;;;5.89;100.00;99819.81;6102783;23;20164;-83
2023/10/17 07:56:24;;;;;;;8.57;7.77;;;;;;;6.03;100.00;99812.81;6078488;23;20232;-80
2023/10/17 07:58:57;;;;;;;9.03;7.90;;;;;;;6.11;100.00;99818.84;6079583;23;20167;-82
2023/10/17 08:01:32;;;;;;;9.67;8.13;;;;;;;6.20;100.00;99816.94;6101638;23;20479;-83
2023/10/17 08:04:13;;;;;;;8.97;7.83;;;;;;;6.30;100.00;99816.66;6102289;23;20207;-83
2023/10/17 08:06:41;;;;;;;8.33;7.03;;;;;;;6.46;100.00;99824.38;6079908;23;20255;-82
2023/10/17 08:12:14;;;;;;;7.57;6.77;;;;;;;6.84;100.00;99822.31;6125856;23;20160;-81
2023/10/17 08:14:45;;;;;;;8.93;6.70;;;;;;;7.03;100.00;99822.50;6101518;23;20642;-81
2023/10/17 08:17:14;;;;;;;6.07;5.47;;;;;;;7.20;100.00;99819.53;6077743;23;20274;-82
2023/10/17 08:23:06;;;;;;;6.13;5.53;;;;;;;7.59;100.00;99809.16;5985058;23;20266;-82
2023/10/17 08:25:53;;;;;;;5.63;5.03;;;;;;;7.79;100.00;99806.63;6099506;23;20655;-81
2023/10/17 08:34:03;;;;;;;5.50;4.97;;;;;;;8.31;100.00;99816.72;6101625;23;20669;-82
2023/10/17 08:36:47;;;;;;;5.43;4.93;;;;;;;8.46;100.00;99800.53;6101721;23;20262;-83
2023/10/17 08:42:25;;;;;;;5.43;4.73;;;;;;;8.67;100.00;99795.03;6102709;23;20246;-81
2023/10/17 08:44:54;;;;;;;4.80;4.23;;;;;;;8.74;100.00;99796.69;6105605;23;20147;-82
2023/10/17 08:47:25;;;;;;;5.63;4.30;;;;;;;8.77;100.00;99785.59;6100142;23;20168;-81
2023/10/17 08:49:55;;;;;;;8.63;5.00;;;;;;;8.74;100.00;99795.88;6101205;23;20645;-82
2023/10/17 08:52:35;;;;;;;4.93;4.40;;;;;;;8.73;100.00;99792.38;6100604;23;20166;-81
2023/10/17 08:55:06;;;;;;;6.20;4.73;;;;;;;8.87;100.00;99787.03;6079718;23;20199;-81
2023/10/17 08:57:37;;;;;;;5.37;4.73;;;;;;;8.95;100.00;99790.34;6100264;23;20710;-81
2023/10/17 09:00:23;;;;;;;5.97;4.53;;;;;;;8.97;100.00;99784.78;6124234;23;20247;-82
2023/10/17 09:03:00;;;;;;;4.87;4.33;;;;;;;9.14;100.00;99780.69;6123784;23;20218;-81
2023/10/17 09:05:29;;;;;;;5.27;4.77;;;;;;;9.27;100.00;99791.38;6100444;23;20182;-81
2023/10/17 09:07:57;;;;;;;5.33;4.83;;;;;;;9.44;100.00;99792.56;6099677;23;20252;-81
2023/10/17 09:13:52;;;;;;;5.60;5.10;;;;;;;9.73;100.00;99783.25;6124110;23;20174;-81
2023/10/17 09:16:10;;;;;;;5.50;5.00;;;;;;;9.97;100.00;99787.09;6124278;23;20639;-81
2023/10/17 09:18:42;;;;;;;4.40;3.90;;;;;;;10.11;100.00;99786.00;6099808;23;20193;-74
2023/10/17 09:21:13;;;;;;;4.77;4.03;;;;;;;10.38;100.00;99779.50;6123152;23;20171;-75
2023/10/17 09:23:43;;;;;;;4.67;3.53;;;;;;;10.64;100.00;99788.44;6125103;23;20151;-77
2023/10/17 09:26:20;;;;;;;4.10;3.70;;;;;;;10.78;100.00;99780.06;6124572;23;20234;-78
2023/10/17 09:28:48;;;;;;;4.03;3.60;;;;;;;10.88;100.00;99776.91;6124374;23;20178;-77
2023/10/17 09:31:17;;;;;;;5.17;3.77;;;;;;;11.01;100.00;99779.50;6124786;23;20163;-76
2023/10/17 09:33:48;;;;;;;4.57;4.13;;;;;;;11.15;100.00;99775.66;6124526;23;20190;-77
2023/10/17 09:36:19;;;;;;;4.03;3.50;;;;;;;11.32;100.00;99778.59;6124035;23;20195;-77
2023/10/17 09:38:47;;;;;;;3.80;3.50;;;;;;;11.38;100.00;99778.53;6121537;23;20156;-77
2023/10/17 09:41:18;;;;;;;4.07;3.77;;;;;;;11.49;100.00;99768.94;6123751;23;20164;-77
2023/10/17 09:43:48;;;;;;;4.00;3.27;;;;;;;11.61;100.00;99764.50;6123938;23;20168;-76
2023/10/17 09:46:18;;;;;;;3.90;3.50;;;;;;;11.67;100.00;99758.22;6124470;23;20172;-76
2023/10/17 09:48:48;;;;;;;4.53;3.80;;;;;;;11.81;100.00;99767.78;6122724;23;20167;-77
2023/10/17 09:51:22;;;;;;;3.60;3.30;;;;;;;11.87;100.00;99763.38;6122982;23;20186;-77
2023/10/17 09:53:53;;;;;;;2.97;2.77;;;;;;;12.08;100.00;99757.56;6122750;23;20172;-77
2023/10/17 09:56:32;;;;;;;4.43;3.00;;;;;;;12.17;100.00;99756.22;6122638;23;20182;-76
2023/10/17 09:59:05;;;;;;;6.63;3.10;;;;;;;12.37;100.00;99747.84;6123181;23;20629;-76
2023/10/17 10:01:35;;;;;;;3.20;2.37;;;;;;;12.25;100.00;99750.50;6122779;23;20168;-79
2023/10/17 10:04:03;;;;;;;2.83;2.40;;;;;;;12.31;100.00;99738.88;6124462;23;20198;-76
2023/10/17 10:06:32;;;;;;;4.67;2.87;;;;;;;12.50;100.00;99734.25;6124067;23;20171;-77
2023/10/17 10:09:13;;;;;;;3.33;2.27;;;;;;;12.62;100.00;99736.97;6126995;23;20619;-81
2023/10/17 10:11:51;;;;;;;2.57;2.37;;;;;;;12.94;100.00;99738.31;6127246;23;20187;-81
2023/10/17 10:14:34;;;;;;;2.73;2.43;;;;;;;12.96;100.00;99725.47;6126019;23;20186;-82
2023/10/17 10:17:05;;;;;;;2.97;2.23;;;;;;;12.97;100.00;99723.59;6126888;23;20200;-82
2023/10/17 10:19:42;;;;;;;2.80;2.40;;;;;;;12.86;100.00;99717.13;6103035;23;20168;-82
2023/10/17 10:22:12;;;;;;;2.40;2.20;;;;;;;12.73;100.00;99706.59;6125515;23;20206;-82
2023/10/17 10:24:41;;;;;;;5.80;2.80;;;;;;;12.74;100.00;99713.59;6102421;23;20167;-82
2023/10/17 10:27:15;;;;;;;3.00;2.47;;;;;;;12.84;100.00;99711.16;6125440;23;20168;-82
2023/10/17 10:29:47;;;;;;;2.87;2.57;;;;;;;13.12;100.00;99710.50;6102907;23;20599;-81
2023/10/17 10:32:33;;;;;;;2.77;2.30;;;;;;;13.22;100.00;99714.25;6079700;23;20175;-81
2023/10/17 10:35:05;;;;;;;3.60;2.33;;;;;;;13.13;100.00;99702.22;6125569;23;20172;-82
2023/10/17 10:37:59;;;;;;;3.07;2.10;;;;;;;13.31;100.00;99708.50;6101332;23;20733;-82
2023/10/17 10:40:32;;;;;;;3.87;2.63;;;;;;;13.16;100.00;99711.66;6101571;23;20168;-81
2023/10/17 10:43:01;;;;;;;3.00;2.23;;;;;;;13.35;100.00;99697.03;6125579;23;20149;-81
2023/10/17 10:45:36;;;;;;;2.40;2.20;;;;;;;13.40;100.00;99691.78;6101882;23;20191;-81
2023/10/17 10:48:17;;;;;;;4.30;2.63;;;;;;;13.40;100.00;99683.69;6127026;23;20156;-81
2023/10/17 10:50:55;;;;;;;2.47;2.27;;;;;;;13.65;100.00;99678.88;6102291;23;20177;-81
2023/10/17 10:53:31;;;;;;;3.23;2.93;;;;;;;13.50;100.00;99670.47;6102693;23;20149;-81
2023/10/17 10:56:01;;;;;;;3.10;2.80;;;;;;;13.56;100.00;99671.41;6101951;23;20167;-81
2023/10/17 10:58:29;;;;;;;2.77;2.50;;;;;;;13.30;100.00;99667.34;6077791;23;20171;-81
2023/10/17 11:00:58;;;;;;;2.80;2.50;;;;;;;13.44;100.00;99660.63;6101943;23;20172;-81
2023/10/17 11:03:26;;;;;;;2.73;2.40;;;;;;;13.36;100.00;99663.69;6077092;23;20234;-82
2023/10/17 11:05:58;;;;;;;3.53;2.27;;;;;;;13.34;100.00;99655.06;6102005;23;20173;-81
2023/10/17 11:08:36;;;;;;;2.93;2.43;;;;;;;13.35;100.00;99643.22;6101668;23;20181;-80
2023/10/17 11:11:09;;;;;;;3.30;2.20;;;;;;;13.58;100.00;99645.03;6078850;23;20172;-82
2023/10/17 11:13:43;;;;;;;3.37;2.20;;;;;;;13.62;100.00;99644.31;6101992;23;20189;-81
2023/10/17 11:16:11;;;;;;;4.40;2.57;;;;;;;13.73;100.00;99642.66;6102038;23;20220;-81
2023/10/17 11:18:43;;;;;;;2.63;1.93;;;;;;;13.93;99.47;99651.13;6101237;23;20176;-82
2023/10/17 11:21:12;;;;;;;3.23;1.90;;;;;;;13.85;96.87;99643.44;6101966;23;20174;-81
2023/10/17 11:23:46;;;;;;;3.30;1.93;;;;;;;13.92;96.85;99644.09;6101224;23;20173;-82
2023/10/17 11:26:17;;;;;;;2.60;1.70;;;;;;;13.99;96.25;99646.66;6101345;23;20168;-81
2023/10/17 11:28:58;;;;;;;1.90;1.80;;;;;;;14.09;93.20;99644.94;6104208;23;20164;-81
2023/10/17 11:31:26;;;;;;;2.37;1.50;;;;;;;14.16;92.92;99638.59;6077012;23;20180;-81
2023/10/17 11:33:55;;;;;;;2.37;1.30;;;;;;;14.32;91.14;99635.13;6101036;23;20169;-83
2023/10/17 11:36:23;;;;;;;1.77;1.40;;;;;;;14.49;91.89;99631.41;6100755;23;20195;-81
2023/10/17 11:38:58;;;;;;;2.80;1.20;;;;;;;14.49;86.66;99633.28;6126217;23;20171;-80
2023/10/17 11:41:29;;;;;;;2.57;0.90;;;;;;;14.43;81.40;99627.00;6124955;23;20610;-82
2023/10/17 11:44:09;;;;;;;2.20;1.20;;;;;;;14.59;79.46;99625.38;6125072;23;20172;-82
2023/10/17 11:46:39;;;;;;;3.43;2.60;;;;;;;14.52;79.01;99625.50;6077623;23;20195;-81
2023/10/17 11:49:20;;;;;;;2.50;1.50;;;;;;;14.66;78.78;99630.56;6101410;23;20672;-81
2023/10/17 11:51:58;;;;;;;3.60;1.10;;;;;;;14.63;76.98;99613.03;6101213;23;20223;-81
2023/10/17 11:54:27;;;;;;;2.60;1.20;;;;;;;14.54;74.88;99615.31;6101051;23;20251;-80
2023/10/17 11:57:15;;;;;;;2.17;0.97;;;;;;;14.59;73.96;99611.88;6077453;23;20186;-80
2023/10/17 12:00:19;;;;;;;1.70;1.20;;;;;;;14.75;73.84;99616.44;6100876;23;20192;-81
2023/10/17 12:02:49;;;;;;;2.07;1.10;;;;;;;14.74;72.75;99619.41;6102711;23;20201;-81
2023/10/17 12:05:21;;;;;;;2.20;1.20;;;;;;;14.80;73.92;99611.13;6124533;23;20169;-81
2023/10/17 12:07:57;;;;;;;0.90;0.80;;;;;;;14.70;70.34;99612.84;6101479;23;20166;-81
2023/10/17 12:10:25;;;;;;;2.60;1.30;;;;;;;14.65;70.61;99604.69;6101112;23;20168;-81
2023/10/17 12:13:04;;;;;;;2.33;1.40;;;;;;;14.69;70.85;99605.84;6124404;23;20170;-81
2023/10/17 12:15:34;;;;;;;1.97;1.20;;;;;;;14.63;69.44;99601.41;6124599;23;20196;-81
2023/10/17 12:18:06;;;;;;;3.17;1.40;;;;;;;14.65;68.27;99607.41;6100727;23;20190;-82
2023/10/17 12:20:40;;;;;;;1.67;1.50;;;;;;;14.71;68.98;99599.13;6124697;23;20174;-82
2023/10/17 12:23:13;;;;;;;1.40;1.03;;;;;;;14.59;69.05;99594.88;6124380;23;20676;-81
2023/10/17 12:25:47;;;;;;;2.00;1.13;;;;;;;14.54;68.56;99595.63;6101211;23;20166;-81
2023/10/17 12:28:17;;;;;;;2.67;1.70;;;;;;;14.54;68.40;99595.63;6100644;23;20172;-81
2023/10/17 12:30:44;;;;;;;1.53;1.00;;;;;;;14.39;67.87;99585.41;6125616;23;20649;-81
2023/10/17 12:33:11;;;;;;;1.00;0.90;;;;;;;14.29;68.78;99589.78;6124200;23;20165;-81
2023/10/17 12:35:46;;;;;;;1.10;0.80;;;;;;;14.20;68.19;99594.75;6099887;23;20177;-81
2023/10/17 12:38:25;;;;;;;3.03;1.03;;;;;;;14.24;67.84;99576.22;6102397;23;20215;-81
2023/10/17 12:40:53;;;;;;;1.10;1.00;;;;;;;14.28;68.89;99578.19;6124175;23;20181;-81
2023/10/17 12:43:21;;;;;;;1.77;1.03;;;;;;;14.23;69.62;99574.63;6076532;23;20177;-81
2023/10/17 12:45:53;;;;;;;1.70;1.00;;;;;;;14.01;70.31;99575.31;6100063;23;20190;-81
2023/10/17 12:48:20;;;;;;;1.57;1.17;;;;;;;13.94;70.30;99571.97;6100632;23;20671;-81
2023/10/17 12:50:48;;;;;;;1.23;0.90;;;;;;;14.17;69.84;99568.31;6099832;23;20174;-81
2023/10/17 12:53:16;;;;;;;2.07;1.20;;;;;;;14.25;70.46;99567.09;6099283;23;20254;-81
2023/10/17 12:55:44;;;;;;;2.13;1.13;;;;;;;14.25;69.74;99567.09;6124066;23;20171;-81
2023/10/17 12:58:18;;;;;;;1.67;0.93;;;;;;;14.38;70.51;99564.09;6100141;23;20192;-81
2023/10/17 13:00:53;;;;;;;1.43;0.97;;;;;;;14.18;68.66;99561.88;6101445;23;20178;-81
2023/10/17 13:03:22;;;;;;;1.00;0.90;;;;;;;14.24;67.24;99551.97;6098927;23;20235;-81
2023/10/17 13:05:50;;;;;;;1.17;0.73;;;;;;;14.29;67.94;99558.28;6100001;23;20201;-81
2023/10/17 13:08:21;;;;;;;2.17;0.90;;;;;;;14.30;68.06;99557.22;6099558;23;20168;-81
2023/10/17 13:10:50;;;;;;;1.23;1.10;;;;;;;14.16;67.58;99558.59;6100245;23;20262;-81
2023/10/17 13:13:19;;;;;;;1.00;0.80;;;;;;;14.23;68.11;99555.75;6099477;23;20203;-81
2023/10/17 13:15:47;;;;;;;1.17;1.07;;;;;;;14.32;68.12;99555.09;6076468;23;20197;-81
2023/10/17 13:18:16;;;;;;;1.23;1.00;;;;;;;14.25;67.23;99549.03;6075649;23;20189;-81
2023/10/17 13:20:48;;;;;;;1.20;1.07;;;;;;;14.33;66.76;99548.63;6124270;23;20687;-81
2023/10/17 13:23:34;;;;;;;1.37;1.00;;;;;;;14.47;67.26;99541.88;6103368;23;20169;-80
2023/10/17 13:26:03;;;;;;;1.03;0.80;;;;;;;14.38;66.72;99531.75;6099857;23;20195;-82
2023/10/17 13:28:30;;;;;;;1.00;0.80;;;;;;;14.25;66.20;99540.97;6123308;23;20175;-81
2023/10/17 13:30:59;;;;;;;2.20;1.27;;;;;;;14.11;66.44;99535.09;6123523;23;20191;-81
2023/10/17 13:33:29;;;;;;;1.60;1.03;;;;;;;14.11;67.14;99545.03;6123194;23;20197;-82
2023/10/17 13:35:57;;;;;;;1.40;0.90;;;;;;;14.11;67.70;99540.47;6099764;23;20165;-81
2023/10/17 13:38:25;;;;;;;2.70;1.27;;;;;;;13.97;66.77;99539.16;6099054;23;20266;-80
2023/10/17 13:41:05;;;;;;;1.87;1.00;;;;;;;13.78;67.08;99542.31;6124527;23;20616;-81
2023/10/17 13:43:39;;;;;;;1.23;1.10;;;;;;;13.82;67.43;99538.88;6125609;23;20209;-82
2023/10/17 13:46:16;;;;;;;2.53;0.90;;;;;;;13.82;67.47;99541.56;6125721;23;20256;-82
2023/10/17 13:48:54;;;;;;;2.40;1.27;;;;;;;13.71;68.29;99533.59;6102811;23;20160;-82
2023/10/17 13:51:21;;;;;;;1.40;1.00;;;;;;;13.72;67.93;99537.91;6127131;23;20611;-82
2023/10/17 13:53:50;;;;;;;1.80;0.90;;;;;;;13.62;67.17;99550.09;6077468;23;20276;-84
2023/10/17 13:56:19;;;;;;;1.27;0.80;;;;;;;13.70;67.29;99538.16;6102230;23;20180;-81